sensor_id;sensor_type;location;lat;lon;timestamp;pressure;altitude;pressure_sealevel;temperature;humidity
42415;BME280;28058;46.344;17.786;2023-04-21T00:01:35;118336.50;;;-144.97;100.00
42415;BME280;28058;46.344;17.786;2023-04-21T00:04:02;118336.50;;;-144.97;100.00
42415;BME280;28058;46.344;17.786;2023-04-21T00:06:29;118336.50;;;-144.97;100.00
42415;BME280;28058;46.344;17.786;2023-04-21T00:08:57;118336.50;;;-144.97;100.00
42415;BME280;28058;46.344;17.786;2023-04-21T00:11:24;118336.50;;;-144.97;100.00
42415;BME280;28058;46.344;17.786;2023-04-21T00:13:54;118336.50;;;-144.97;100.00
42415;BME280;28058;46.344;17.786;2023-04-21T00:16:22;118336.50;;;-144.97;100.00
42415;BME280;28058;46.344;17.786;2023-04-21T00:18:49;118336.50;;;-144.97;100.00
42415;BME280;28058;46.344;17.786;2023-04-21T00:21:16;118336.50;;;-144.97;100.00
42415;BME280;28058;46.344;17.786;2023-04-21T00:23:43;118336.50;;;-144.97;100.00
42415;BME280;28058;46.344;17.786;2023-04-21T00:26:10;118336.50;;;-144.97;100.00
42415;BME280;28058;46.344;17.786;2023-04-21T00:28:37;118336.50;;;-144.97;100.00
42415;BME280;28058;46.344;17.786;2023-04-21T00:31:05;118336.50;;;-144.97;100.00
42415;BME280;28058;46.344;17.786;2023-04-21T00:33:32;118336.50;;;-144.97;100.00
42415;BME280;28058;46.344;17.786;2023-04-21T00:35:59;118336.50;;;-144.97;100.00
42415;BME280;28058;46.344;17.786;2023-04-21T00:38:26;118336.50;;;-144.97;100.00
42415;BME280;28058;46.344;17.786;2023-04-21T00:40:53;118336.50;;;-144.97;100.00
42415;BME280;28058;46.344;17.786;2023-04-21T00:43:20;118336.50;;;-144.97;100.00
42415;BME280;28058;46.344;17.786;2023-04-21T00:45:47;118336.50;;;-144.97;100.00
42415;BME280;28058;46.344;17.786;2023-04-21T00:48:14;118336.50;;;-144.97;100.00
42415;BME280;28058;46.344;17.786;2023-04-21T00:50:42;118336.50;;;-144.97;100.00
42415;BME280;28058;46.344;17.786;2023-04-21T00:53:10;118336.50;;;-144.97;100.00
42415;BME280;28058;46.344;17.786;2023-04-21T00:55:38;118336.50;;;-144.97;100.00
42415;BME280;28058;46.344;17.786;2023-04-21T00:58:05;118336.50;;;-144.97;100.00
42415;BME280;28058;46.344;17.786;2023-04-21T01:00:33;118336.50;;;-144.97;100.00
42415;BME280;28058;46.344;17.786;2023-04-21T01:03:00;118336.50;;;-144.97;100.00
42415;BME280;28058;46.344;17.786;2023-04-21T01:05:27;118336.50;;;-144.97;100.00
42415;BME280;28058;46.344;17.786;2023-04-21T01:07:54;118336.50;;;-144.97;100.00
42415;BME280;28058;46.344;17.786;2023-04-21T01:10:21;118336.50;;;-144.97;100.00
42415;BME280;28058;46.344;17.786;2023-04-21T01:12:50;118336.50;;;-144.97;100.00
42415;BME280;28058;46.344;17.786;2023-04-21T01:15:17;118336.50;;;-144.97;100.00
42415;BME280;28058;46.344;17.786;2023-04-21T01:17:44;118336.50;;;-144.97;100.00
42415;BME280;28058;46.344;17.786;2023-04-21T01:20:13;118336.50;;;-144.97;100.00
42415;BME280;28058;46.344;17.786;2023-04-21T01:22:41;118336.50;;;-144.97;100.00
42415;BME280;28058;46.344;17.786;2023-04-21T01:25:08;118336.50;;;-144.97;100.00
42415;BME280;28058;46.344;17.786;2023-04-21T01:27:36;118336.50;;;-144.97;100.00
42415;BME280;28058;46.344;17.786;2023-04-21T01:30:06;118336.50;;;-144.97;100.00
42415;BME280;28058;46.344;17.786;2023-04-21T01:32:34;118336.50;;;-144.97;100.00
42415;BME280;28058;46.344;17.786;2023-04-21T01:35:02;118336.50;;;-144.97;100.00
42415;BME280;28058;46.344;17.786;2023-04-21T01:37:30;118336.50;;;-144.97;100.00
42415;BME280;28058;46.344;17.786;2023-04-21T01:40:00;118336.50;;;-144.97;100.00
42415;BME280;28058;46.344;17.786;2023-04-21T01:42:28;118336.50;;;-144.97;100.00
42415;BME280;28058;46.344;17.786;2023-04-21T01:44:56;118336.50;;;-144.97;100.00
42415;BME280;28058;46.344;17.786;2023-04-21T01:47:24;118336.50;;;-144.97;100.00
42415;BME280;28058;46.344;17.786;2023-04-21T01:49:51;118336.50;;;-144.97;100.00
42415;BME280;28058;46.344;17.786;2023-04-21T01:52:19;118336.50;;;-144.97;100.00
42415;BME280;28058;46.344;17.786;2023-04-21T01:54:47;118336.50;;;-144.97;100.00
42415;BME280;28058;46.344;17.786;2023-04-21T01:57:15;118336.50;;;-144.97;100.00
42415;BME280;28058;46.344;17.786;2023-04-21T01:59:43;118336.50;;;-144.97;100.00
42415;BME280;28058;46.344;17.786;2023-04-21T02:02:10;118336.50;;;-144.97;100.00
42415;BME280;28058;46.344;17.786;2023-04-21T02:04:38;118336.50;;;-144.97;100.00
42415;BME280;28058;46.344;17.786;2023-04-21T02:07:05;118336.50;;;-144.97;100.00
42415;BME280;28058;46.344;17.786;2023-04-21T02:09:32;118336.50;;;-144.97;100.00
42415;BME280;28058;46.344;17.786;2023-04-21T02:12:00;118336.50;;;-144.97;100.00
42415;BME280;28058;46.344;17.786;2023-04-21T02:14:28;118336.50;;;-144.97;100.00
42415;BME280;28058;46.344;17.786;2023-04-21T02:16:55;118336.50;;;-144.97;100.00
42415;BME280;28058;46.344;17.786;2023-04-21T02:19:23;118336.50;;;-144.97;100.00
42415;BME280;28058;46.344;17.786;2023-04-21T02:21:50;118336.50;;;-144.97;100.00
42415;BME280;28058;46.344;17.786;2023-04-21T02:24:17;118336.50;;;-144.97;100.00
42415;BME280;28058;46.344;17.786;2023-04-21T02:26:44;118336.50;;;-144.97;100.00
42415;BME280;28058;46.344;17.786;2023-04-21T02:29:11;118336.50;;;-144.97;100.00
42415;BME280;28058;46.344;17.786;2023-04-21T02:31:39;118336.50;;;-144.97;100.00
42415;BME280;28058;46.344;17.786;2023-04-21T02:34:23;118336.50;;;-144.97;100.00
42415;BME280;28058;46.344;17.786;2023-04-21T02:36:50;118336.50;;;-144.97;100.00
42415;BME280;28058;46.344;17.786;2023-04-21T02:39:17;118336.50;;;-144.97;100.00
42415;BME280;28058;46.344;17.786;2023-04-21T02:41:44;118336.50;;;-144.97;100.00
42415;BME280;28058;46.344;17.786;2023-04-21T02:44:11;118336.50;;;-144.97;100.00
42415;BME280;28058;46.344;17.786;2023-04-21T02:46:39;118336.50;;;-144.97;100.00
42415;BME280;28058;46.344;17.786;2023-04-21T02:49:08;118336.50;;;-144.97;100.00
42415;BME280;28058;46.344;17.786;2023-04-21T02:51:35;118336.50;;;-144.97;100.00
42415;BME280;28058;46.344;17.786;2023-04-21T02:54:02;118336.50;;;-144.97;100.00
42415;BME280;28058;46.344;17.786;2023-04-21T02:56:29;118336.50;;;-144.97;100.00
42415;BME280;28058;46.344;17.786;2023-04-21T02:58:57;118336.50;;;-144.97;100.00
42415;BME280;28058;46.344;17.786;2023-04-21T03:01:24;118336.50;;;-144.97;100.00
42415;BME280;28058;46.344;17.786;2023-04-21T03:03:51;118336.50;;;-144.97;100.00
42415;BME280;28058;46.344;17.786;2023-04-21T03:06:19;118336.50;;;-144.97;100.00
42415;BME280;28058;46.344;17.786;2023-04-21T03:08:46;118336.50;;;-144.97;100.00
42415;BME280;28058;46.344;17.786;2023-04-21T03:11:13;118336.50;;;-144.97;100.00
42415;BME280;28058;46.344;17.786;2023-04-21T03:13:40;118336.50;;;-144.97;100.00
42415;BME280;28058;46.344;17.786;2023-04-21T03:16:07;118336.50;;;-144.97;100.00
42415;BME280;28058;46.344;17.786;2023-04-21T03:18:34;118336.50;;;-144.97;100.00
42415;BME280;28058;46.344;17.786;2023-04-21T03:21:02;118336.50;;;-144.97;100.00
42415;BME280;28058;46.344;17.786;2023-04-21T03:23:29;118336.50;;;-144.97;100.00
42415;BME280;28058;46.344;17.786;2023-04-21T03:25:56;118336.50;;;-144.97;100.00
42415;BME280;28058;46.344;17.786;2023-04-21T03:28:22;118336.50;;;-144.97;100.00
42415;BME280;28058;46.344;17.786;2023-04-21T03:30:49;118336.50;;;-144.97;100.00
42415;BME280;28058;46.344;17.786;2023-04-21T03:33:16;118336.50;;;-144.97;100.00
42415;BME280;28058;46.344;17.786;2023-04-21T03:35:43;118336.50;;;-144.97;100.00
42415;BME280;28058;46.344;17.786;2023-04-21T03:38:10;118336.50;;;-144.97;100.00
42415;BME280;28058;46.344;17.786;2023-04-21T03:40:37;118336.50;;;-144.97;100.00
42415;BME280;28058;46.344;17.786;2023-04-21T03:43:04;118336.50;;;-144.97;100.00
42415;BME280;28058;46.344;17.786;2023-04-21T03:45:34;118336.50;;;-144.97;100.00
42415;BME280;28058;46.344;17.786;2023-04-21T03:48:01;118336.50;;;-144.97;100.00
42415;BME280;28058;46.344;17.786;2023-04-21T03:50:29;118336.50;;;-144.97;100.00
42415;BME280;28058;46.344;17.786;2023-04-21T03:52:56;118336.50;;;-144.97;100.00
42415;BME280;28058;46.344;17.786;2023-04-21T03:55:23;118336.50;;;-144.97;100.00
42415;BME280;28058;46.344;17.786;2023-04-21T03:57:50;118336.50;;;-144.97;100.00
42415;BME280;28058;46.344;17.786;2023-04-21T04:00:17;118336.50;;;-144.97;100.00
42415;BME280;28058;46.344;17.786;2023-04-21T04:02:44;118336.50;;;-144.97;100.00
42415;BME280;28058;46.344;17.786;2023-04-21T04:05:11;118336.50;;;-144.97;100.00
42415;BME280;28058;46.344;17.786;2023-04-21T04:07:39;118336.50;;;-144.97;100.00
42415;BME280;28058;46.344;17.786;2023-04-21T04:10:06;118336.50;;;-144.97;100.00
42415;BME280;28058;46.344;17.786;2023-04-21T04:12:33;118336.50;;;-144.97;100.00
42415;BME280;28058;46.344;17.786;2023-04-21T04:15:00;118336.50;;;-144.97;100.00
42415;BME280;28058;46.344;17.786;2023-04-21T04:17:28;118336.50;;;-144.97;100.00
42415;BME280;28058;46.344;17.786;2023-04-21T04:19:55;118336.50;;;-144.97;100.00
42415;BME280;28058;46.344;17.786;2023-04-21T04:22:22;118336.50;;;-144.97;100.00
42415;BME280;28058;46.344;17.786;2023-04-21T04:24:49;118336.50;;;-144.97;100.00
42415;BME280;28058;46.344;17.786;2023-04-21T04:27:16;118336.50;;;-144.97;100.00
42415;BME280;28058;46.344;17.786;2023-04-21T04:29:46;118336.50;;;-144.97;100.00
42415;BME280;28058;46.344;17.786;2023-04-21T04:32:15;118336.50;;;-144.97;100.00
42415;BME280;28058;46.344;17.786;2023-04-21T04:34:42;118336.50;;;-144.97;100.00
42415;BME280;28058;46.344;17.786;2023-04-21T04:37:09;118336.50;;;-144.97;100.00
42415;BME280;28058;46.344;17.786;2023-04-21T04:39:36;118336.50;;;-144.97;100.00
42415;BME280;28058;46.344;17.786;2023-04-21T04:42:07;118336.50;;;-144.97;100.00
42415;BME280;28058;46.344;17.786;2023-04-21T04:44:37;118336.50;;;-144.97;100.00
42415;BME280;28058;46.344;17.786;2023-04-21T04:47:04;118336.50;;;-144.97;100.00
42415;BME280;28058;46.344;17.786;2023-04-21T04:49:31;118336.50;;;-144.97;100.00
42415;BME280;28058;46.344;17.786;2023-04-21T04:51:58;118336.50;;;-144.97;100.00
42415;BME280;28058;46.344;17.786;2023-04-21T04:54:27;118336.50;;;-144.97;100.00
42415;BME280;28058;46.344;17.786;2023-04-21T04:56:54;118336.50;;;-144.97;100.00
42415;BME280;28058;46.344;17.786;2023-04-21T04:59:23;118336.50;;;-144.97;100.00
42415;BME280;28058;46.344;17.786;2023-04-21T05:01:50;118336.50;;;-144.97;100.00
42415;BME280;28058;46.344;17.786;2023-04-21T05:04:18;118336.50;;;-144.97;100.00
42415;BME280;28058;46.344;17.786;2023-04-21T05:06:46;118336.50;;;-144.97;100.00
42415;BME280;28058;46.344;17.786;2023-04-21T05:09:13;118336.50;;;-144.97;100.00
42415;BME280;28058;46.344;17.786;2023-04-21T05:11:40;118336.50;;;-144.97;100.00
42415;BME280;28058;46.344;17.786;2023-04-21T05:14:07;118336.50;;;-144.97;100.00
42415;BME280;28058;46.344;17.786;2023-04-21T05:16:34;118336.50;;;-144.97;100.00
42415;BME280;28058;46.344;17.786;2023-04-21T05:19:02;118336.50;;;-144.97;100.00
42415;BME280;28058;46.344;17.786;2023-04-21T05:21:29;118336.50;;;-144.97;100.00
42415;BME280;28058;46.344;17.786;2023-04-21T05:23:57;118336.50;;;-144.97;100.00
42415;BME280;28058;46.344;17.786;2023-04-21T05:26:25;118336.50;;;-144.97;100.00
42415;BME280;28058;46.344;17.786;2023-04-21T05:28:56;118336.50;;;-144.97;100.00
42415;BME280;28058;46.344;17.786;2023-04-21T05:31:24;118336.50;;;-144.97;100.00
42415;BME280;28058;46.344;17.786;2023-04-21T05:33:51;118336.50;;;-144.97;100.00
42415;BME280;28058;46.344;17.786;2023-04-21T05:36:19;118336.50;;;-144.97;100.00
42415;BME280;28058;46.344;17.786;2023-04-21T05:38:46;118336.50;;;-144.97;100.00
42415;BME280;28058;46.344;17.786;2023-04-21T05:41:13;118336.50;;;-144.97;100.00
42415;BME280;28058;46.344;17.786;2023-04-21T05:43:40;118336.50;;;-144.97;100.00
42415;BME280;28058;46.344;17.786;2023-04-21T05:46:10;118336.50;;;-144.97;100.00
42415;BME280;28058;46.344;17.786;2023-04-21T05:48:37;118336.50;;;-144.97;100.00
42415;BME280;28058;46.344;17.786;2023-04-21T05:51:22;118336.50;;;-144.97;100.00
42415;BME280;28058;46.344;17.786;2023-04-21T05:53:49;118336.50;;;-144.97;100.00
42415;BME280;28058;46.344;17.786;2023-04-21T05:56:16;118336.50;;;-144.97;100.00
42415;BME280;28058;46.344;17.786;2023-04-21T05:58:43;118336.50;;;-144.97;100.00
42415;BME280;28058;46.344;17.786;2023-04-21T06:01:10;118336.50;;;-144.97;100.00
42415;BME280;28058;46.344;17.786;2023-04-21T06:03:38;118336.50;;;-144.97;100.00
42415;BME280;28058;46.344;17.786;2023-04-21T06:06:06;118336.50;;;-144.97;100.00
42415;BME280;28058;46.344;17.786;2023-04-21T06:08:33;118336.50;;;-144.97;100.00
42415;BME280;28058;46.344;17.786;2023-04-21T06:11:00;118336.50;;;-144.97;100.00
42415;BME280;28058;46.344;17.786;2023-04-21T06:13:27;118336.50;;;-144.97;100.00
42415;BME280;28058;46.344;17.786;2023-04-21T06:15:54;118336.50;;;-144.97;100.00
42415;BME280;28058;46.344;17.786;2023-04-21T06:18:21;118336.50;;;-144.97;98.14
42415;BME280;28058;46.344;17.786;2023-04-21T06:20:50;118336.50;;;-144.97;87.61
42415;BME280;28058;46.344;17.786;2023-04-21T06:23:18;118336.50;;;-144.97;88.05
42415;BME280;28058;46.344;17.786;2023-04-21T06:25:45;118336.50;;;-144.97;96.36
42415;BME280;28058;46.344;17.786;2023-04-21T06:28:12;118336.50;;;-144.97;96.41
42415;BME280;28058;46.344;17.786;2023-04-21T06:30:39;118336.50;;;-144.97;96.13
42415;BME280;28058;46.344;17.786;2023-04-21T06:33:06;118336.50;;;-144.97;100.00
42415;BME280;28058;46.344;17.786;2023-04-21T06:35:33;118336.50;;;-144.97;100.00
42415;BME280;28058;46.344;17.786;2023-04-21T06:38:00;118336.50;;;-144.97;100.00
42415;BME280;28058;46.344;17.786;2023-04-21T06:40:27;118336.50;;;-144.97;100.00
42415;BME280;28058;46.344;17.786;2023-04-21T06:42:54;118336.50;;;-144.97;100.00
42415;BME280;28058;46.344;17.786;2023-04-21T06:45:21;118336.50;;;-144.97;100.00
42415;BME280;28058;46.344;17.786;2023-04-21T06:47:48;118336.50;;;-144.97;93.81
42415;BME280;28058;46.344;17.786;2023-04-21T06:50:15;118336.50;;;-144.97;73.03
42415;BME280;28058;46.344;17.786;2023-04-21T06:52:42;118336.50;;;-144.97;64.24
42415;BME280;28058;46.344;17.786;2023-04-21T06:55:09;118336.50;;;-144.97;59.41
42415;BME280;28058;46.344;17.786;2023-04-21T06:57:36;118336.50;;;-144.97;51.10
42415;BME280;28058;46.344;17.786;2023-04-21T07:00:04;118336.50;;;-144.97;56.44
42415;BME280;28058;46.344;17.786;2023-04-21T07:02:31;118336.50;;;-144.97;63.92
42415;BME280;28058;46.344;17.786;2023-04-21T07:04:58;118336.50;;;-144.97;68.75
42415;BME280;28058;46.344;17.786;2023-04-21T07:07:26;118336.50;;;-144.97;71.40
42415;BME280;28058;46.344;17.786;2023-04-21T07:09:53;118336.50;;;-144.97;70.01
42415;BME280;28058;46.344;17.786;2023-04-21T07:12:20;118336.50;;;-144.97;67.98
42415;BME280;28058;46.344;17.786;2023-04-21T07:14:47;118336.50;;;-144.97;54.54
42415;BME280;28058;46.344;17.786;2023-04-21T07:17:14;118336.50;;;-144.97;52.43
42415;BME280;28058;46.344;17.786;2023-04-21T07:19:41;118336.50;;;-144.97;45.42
42415;BME280;28058;46.344;17.786;2023-04-21T07:22:08;118336.50;;;-144.97;47.07
42415;BME280;28058;46.344;17.786;2023-04-21T07:24:35;118336.50;;;-144.97;48.70
42415;BME280;28058;46.344;17.786;2023-04-21T07:27:03;118336.50;;;-144.97;52.07
42415;BME280;28058;46.344;17.786;2023-04-21T07:29:30;118336.50;;;-144.97;53.17
42415;BME280;28058;46.344;17.786;2023-04-21T07:31:57;118336.50;;;-144.97;53.07
42415;BME280;28058;46.344;17.786;2023-04-21T07:34:24;118336.50;;;-144.97;51.31
42415;BME280;28058;46.344;17.786;2023-04-21T07:36:51;118336.50;;;-144.97;50.81
42415;BME280;28058;46.344;17.786;2023-04-21T07:39:18;118336.50;;;-144.97;42.26
42415;BME280;28058;46.344;17.786;2023-04-21T07:41:46;118336.50;;;-144.97;44.93
42415;BME280;28058;46.344;17.786;2023-04-21T07:44:14;118336.50;;;-144.97;45.71
42415;BME280;28058;46.344;17.786;2023-04-21T07:46:41;118336.50;;;-144.97;45.54
42415;BME280;28058;46.344;17.786;2023-04-21T07:49:08;118336.50;;;-144.97;41.64
42415;BME280;28058;46.344;17.786;2023-04-21T07:51:35;118336.50;;;-144.97;43.35
42415;BME280;28058;46.344;17.786;2023-04-21T07:54:02;118336.50;;;-144.97;47.51
42415;BME280;28058;46.344;17.786;2023-04-21T07:56:29;118336.50;;;-144.97;48.20
42415;BME280;28058;46.344;17.786;2023-04-21T07:58:57;118336.50;;;-144.97;45.85
42415;BME280;28058;46.344;17.786;2023-04-21T08:01:24;118336.50;;;-144.97;42.16
42415;BME280;28058;46.344;17.786;2023-04-21T08:03:51;118336.50;;;-144.97;42.40
42415;BME280;28058;46.344;17.786;2023-04-21T08:06:18;118336.50;;;-144.97;43.40
42415;BME280;28058;46.344;17.786;2023-04-21T08:08:45;118336.50;;;-144.97;42.36
42415;BME280;28058;46.344;17.786;2023-04-21T08:11:12;118336.50;;;-144.97;42.57
42415;BME280;28058;46.344;17.786;2023-04-21T08:13:39;118336.50;;;-144.97;41.73
42415;BME280;28058;46.344;17.786;2023-04-21T08:16:06;118336.50;;;-144.97;40.75
42415;BME280;28058;46.344;17.786;2023-04-21T08:18:34;118336.50;;;-144.97;38.01
42415;BME280;28058;46.344;17.786;2023-04-21T08:21:01;118336.50;;;-144.97;36.42
42415;BME280;28058;46.344;17.786;2023-04-21T08:23:28;118336.50;;;-144.97;35.16
42415;BME280;28058;46.344;17.786;2023-04-21T08:25:58;118336.50;;;-144.97;36.04
42415;BME280;28058;46.344;17.786;2023-04-21T08:28:25;118336.50;;;-144.97;35.44
42415;BME280;28058;46.344;17.786;2023-04-21T08:30:52;118336.50;;;-144.97;34.54
42415;BME280;28058;46.344;17.786;2023-04-21T08:33:19;118336.50;;;-144.97;33.77
42415;BME280;28058;46.344;17.786;2023-04-21T08:35:46;118336.50;;;-144.97;35.19
42415;BME280;28058;46.344;17.786;2023-04-21T08:38:29;118336.50;;;-144.97;35.42
42415;BME280;28058;46.344;17.786;2023-04-21T08:40:58;118336.50;;;-144.97;36.04
42415;BME280;28058;46.344;17.786;2023-04-21T08:43:27;118336.50;;;-144.97;35.28
42415;BME280;28058;46.344;17.786;2023-04-21T08:45:55;118336.50;;;-144.97;35.35
42415;BME280;28058;46.344;17.786;2023-04-21T08:48:22;118336.50;;;-144.97;35.27
42415;BME280;28058;46.344;17.786;2023-04-21T08:50:51;118336.50;;;-144.97;34.46
42415;BME280;28058;46.344;17.786;2023-04-21T08:53:18;118336.50;;;-144.97;34.16
42415;BME280;28058;46.344;17.786;2023-04-21T08:55:51;118336.50;;;-144.97;34.63
42415;BME280;28058;46.344;17.786;2023-04-21T08:58:37;118336.50;;;-144.97;34.82
42415;BME280;28058;46.344;17.786;2023-04-21T09:01:04;118336.50;;;-144.97;34.69
42415;BME280;28058;46.344;17.786;2023-04-21T09:03:31;118336.50;;;-144.97;35.67
42415;BME280;28058;46.344;17.786;2023-04-21T09:06:06;118336.50;;;-144.97;34.97
42415;BME280;28058;46.344;17.786;2023-04-21T09:08:41;118336.50;;;-144.97;35.62
42415;BME280;28058;46.344;17.786;2023-04-21T09:11:13;118336.50;;;-144.97;35.24
42415;BME280;28058;46.344;17.786;2023-04-21T09:13:41;118336.50;;;-144.97;35.81
42415;BME280;28058;46.344;17.786;2023-04-21T09:16:20;118336.50;;;-144.97;36.14
42415;BME280;28058;46.344;17.786;2023-04-21T09:18:48;118336.50;;;-144.97;36.20
42415;BME280;28058;46.344;17.786;2023-04-21T09:21:17;118336.50;;;-144.97;39.06
42415;BME280;28058;46.344;17.786;2023-04-21T09:23:47;118336.50;;;-144.97;39.31
42415;BME280;28058;46.344;17.786;2023-04-21T09:26:16;118336.50;;;-144.97;38.24
42415;BME280;28058;46.344;17.786;2023-04-21T09:28:46;118336.50;;;-144.97;38.28
42415;BME280;28058;46.344;17.786;2023-04-21T09:31:15;118336.50;;;-144.97;37.87
42415;BME280;28058;46.344;17.786;2023-04-21T09:33:47;118336.50;;;-144.97;37.91
42415;BME280;28058;46.344;17.786;2023-04-21T09:36:26;118336.50;;;-144.97;38.37
42415;BME280;28058;46.344;17.786;2023-04-21T09:38:59;118336.50;;;-144.97;37.41
42415;BME280;28058;46.344;17.786;2023-04-21T09:41:30;118336.50;;;-144.97;37.60
42415;BME280;28058;46.344;17.786;2023-04-21T09:43:58;118336.50;;;-144.97;39.29
42415;BME280;28058;46.344;17.786;2023-04-21T09:46:34;118336.50;;;-144.97;37.93
42415;BME280;28058;46.344;17.786;2023-04-21T09:49:03;118336.50;;;-144.97;37.04
42415;BME280;28058;46.344;17.786;2023-04-21T09:51:30;118336.50;;;-144.97;36.07
42415;BME280;28058;46.344;17.786;2023-04-21T09:54:05;118336.50;;;-144.97;37.15
42415;BME280;28058;46.344;17.786;2023-04-21T09:56:48;118336.50;;;-144.97;36.77
42415;BME280;28058;46.344;17.786;2023-04-21T09:59:24;118336.50;;;-144.97;36.09
42415;BME280;28058;46.344;17.786;2023-04-21T10:01:54;118336.50;;;-144.97;35.60
42415;BME280;28058;46.344;17.786;2023-04-21T10:04:23;118336.50;;;-144.97;36.22
42415;BME280;28058;46.344;17.786;2023-04-21T10:06:52;118336.50;;;-144.97;37.07
42415;BME280;28058;46.344;17.786;2023-04-21T10:09:21;118336.50;;;-144.97;37.10
42415;BME280;28058;46.344;17.786;2023-04-21T10:11:50;118336.50;;;-144.97;36.84
42415;BME280;28058;46.344;17.786;2023-04-21T10:14:18;118336.50;;;-144.97;36.97
42415;BME280;28058;46.344;17.786;2023-04-21T10:17:04;118336.50;;;-144.97;36.88
42415;BME280;28058;46.344;17.786;2023-04-21T10:19:33;118336.50;;;-144.97;35.46
42415;BME280;28058;46.344;17.786;2023-04-21T10:22:10;118336.50;;;-144.97;37.07
42415;BME280;28058;46.344;17.786;2023-04-21T10:24:38;118336.50;;;-144.97;37.40
42415;BME280;28058;46.344;17.786;2023-04-21T10:27:11;118336.50;;;-144.97;37.35
42415;BME280;28058;46.344;17.786;2023-04-21T10:29:57;118336.50;;;-144.97;36.77
42415;BME280;28058;46.344;17.786;2023-04-21T10:32:39;118336.50;;;-144.97;37.04
42415;BME280;28058;46.344;17.786;2023-04-21T10:35:57;118336.50;;;-144.97;36.34
42415;BME280;28058;46.344;17.786;2023-04-21T10:37:55;118336.50;;;-144.97;36.63
42415;BME280;28058;46.344;17.786;2023-04-21T10:40:33;118336.50;;;-144.97;36.49
42415;BME280;28058;46.344;17.786;2023-04-21T10:43:42;118336.50;;;-144.97;36.01
42415;BME280;28058;46.344;17.786;2023-04-21T10:46:33;118336.50;;;-144.97;36.06
42415;BME280;28058;46.344;17.786;2023-04-21T10:54:25;118336.50;;;-144.97;35.79
42415;BME280;28058;46.344;17.786;2023-04-21T10:56:53;118336.50;;;-144.97;35.14
42415;BME280;28058;46.344;17.786;2023-04-21T10:59:21;118336.50;;;-144.97;36.61
42415;BME280;28058;46.344;17.786;2023-04-21T11:01:48;118336.50;;;-144.97;35.26
42415;BME280;28058;46.344;17.786;2023-04-21T11:04:16;118336.50;;;-144.97;36.89
42415;BME280;28058;46.344;17.786;2023-04-21T11:07:10;118336.50;;;-144.97;37.33
42415;BME280;28058;46.344;17.786;2023-04-21T11:09:39;118336.50;;;-144.97;36.45
42415;BME280;28058;46.344;17.786;2023-04-21T11:12:11;118336.50;;;-144.97;35.84
42415;BME280;28058;46.344;17.786;2023-04-21T11:14:40;118336.50;;;-144.97;36.32
42415;BME280;28058;46.344;17.786;2023-04-21T11:17:13;118336.50;;;-144.97;35.66
42415;BME280;28058;46.344;17.786;2023-04-21T11:19:44;118336.50;;;-144.97;36.40
42415;BME280;28058;46.344;17.786;2023-04-21T11:22:11;118336.50;;;-144.97;35.84
42415;BME280;28058;46.344;17.786;2023-04-21T11:24:43;118336.50;;;-144.97;36.62
42415;BME280;28058;46.344;17.786;2023-04-21T11:27:11;118336.50;;;-144.97;36.16
42415;BME280;28058;46.344;17.786;2023-04-21T11:29:41;118336.50;;;-144.97;36.52
42415;BME280;28058;46.344;17.786;2023-04-21T11:32:09;118336.50;;;-144.97;35.60
42415;BME280;28058;46.344;17.786;2023-04-21T11:34:37;118336.50;;;-144.97;34.92
42415;BME280;28058;46.344;17.786;2023-04-21T11:37:25;118336.50;;;-144.97;34.54
42415;BME280;28058;46.344;17.786;2023-04-21T11:39:59;118336.50;;;-144.97;34.19
42415;BME280;28058;46.344;17.786;2023-04-21T11:42:27;118336.50;;;-144.97;34.72
42415;BME280;28058;46.344;17.786;2023-04-21T11:44:55;118336.50;;;-144.97;34.38
42415;BME280;28058;46.344;17.786;2023-04-21T11:47:24;118336.50;;;-144.97;34.21
42415;BME280;28058;46.344;17.786;2023-04-21T11:49:54;118336.50;;;-144.97;33.84
42415;BME280;28058;46.344;17.786;2023-04-21T11:52:27;118336.50;;;-144.97;34.39
42415;BME280;28058;46.344;17.786;2023-04-21T11:54:59;118336.50;;;-144.97;34.46
42415;BME280;28058;46.344;17.786;2023-04-21T11:57:28;118336.50;;;-144.97;34.65
42415;BME280;28058;46.344;17.786;2023-04-21T12:00:00;118336.50;;;-144.97;34.32
42415;BME280;28058;46.344;17.786;2023-04-21T12:02:30;118336.50;;;-144.97;34.69
42415;BME280;28058;46.344;17.786;2023-04-21T12:07:27;118336.50;;;-144.97;34.88
42415;BME280;28058;46.344;17.786;2023-04-21T12:09:54;118336.50;;;-144.97;34.50
42415;BME280;28058;46.344;17.786;2023-04-21T12:12:22;118336.50;;;-144.97;34.55
42415;BME280;28058;46.344;17.786;2023-04-21T12:14:50;118336.50;;;-144.97;34.52
42415;BME280;28058;46.344;17.786;2023-04-21T12:17:18;118336.50;;;-144.97;34.94
42415;BME280;28058;46.344;17.786;2023-04-21T12:19:46;118336.50;;;-144.97;33.71
42415;BME280;28058;46.344;17.786;2023-04-21T12:22:15;118336.50;;;-144.97;34.36
42415;BME280;28058;46.344;17.786;2023-04-21T12:24:45;118336.50;;;-144.97;33.36
42415;BME280;28058;46.344;17.786;2023-04-21T12:27:13;118336.50;;;-144.97;33.62
42415;BME280;28058;46.344;17.786;2023-04-21T12:29:40;118336.50;;;-144.97;34.49
42415;BME280;28058;46.344;17.786;2023-04-21T12:32:08;118336.50;;;-144.97;35.17